Time;durP1;ratioP1;P1;durP2;ratioP2;P2;SDS_P1;SDS_P2;PMS_P1;PMS_P2;Temp;Humidity;BMP_temperature;BMP_pressure;BME280_temperature;BME280_humidity;BME280_pressure;Samples;Min_cycle;Max_cycle;Signal;HPM_P1;HPM_P2
2022/12/19 00:01:49;;;;;;;31.33;15.13;;;-3.70;99.90;;;;;;5048243;28;20215;-67
2022/12/19 00:04:18;;;;;;;29.67;13.53;;;-3.70;99.90;;;;;;5043451;28;20723;-67
2022/12/19 00:06:44;;;;;;;35.37;15.37;;;-3.80;99.90;;;;;;5045311;28;20578;-69
2022/12/19 00:09:11;;;;;;;31.80;15.07;;;-3.70;99.90;;;;;;5043512;28;20652;-68
2022/12/19 00:11:37;;;;;;;28.93;13.97;;;-3.70;99.90;;;;;;5047162;28;20184;-68
2022/12/19 00:14:04;;;;;;;34.87;16.30;;;-3.70;99.90;;;;;;5047518;28;20215;-67
2022/12/19 00:16:30;;;;;;;30.83;14.57;;;-3.70;99.90;;;;;;5045253;28;20217;-69
2022/12/19 00:18:58;;;;;;;28.10;13.57;;;-3.70;99.90;;;;;;5041445;28;20292;-69
2022/12/19 00:21:26;;;;;;;26.53;14.13;;;-3.70;99.90;;;;;;5041970;28;20238;-69
2022/12/19 00:23:53;;;;;;;32.07;13.97;;;-3.60;99.90;;;;;;5045225;28;20212;-69
2022/12/19 00:26:49;;;;;;;31.53;13.40;;;-3.70;99.90;;;;;;5050514;28;20218;-69
2022/12/19 00:29:14;;;;;;;31.00;15.17;;;-3.60;99.90;;;;;;5035017;23;20238;-70
2022/12/19 00:31:40;;;;;;;28.00;13.23;;;-3.60;99.90;;;;;;5033968;28;20233;-70
2022/12/19 00:34:06;;;;;;;27.50;13.83;;;-3.60;99.90;;;;;;5022384;28;20211;-70
2022/12/19 00:36:33;;;;;;;30.53;13.77;;;-3.60;99.90;;;;;;5028463;28;20256;-70
2022/12/19 00:39:00;;;;;;;30.43;14.13;;;-3.60;99.90;;;;;;5022321;28;20215;-70
2022/12/19 00:41:31;;;;;;;33.13;13.77;;;-3.50;99.90;;;;;;5062513;28;20208;-70
2022/12/19 00:44:05;;;;;;;28.73;13.07;;;-3.50;99.90;;;;;;5065108;28;20706;-70
2022/12/19 00:46:32;;;;;;;24.13;12.97;;;-3.50;99.90;;;;;;5062736;28;20259;-70
2022/12/19 00:48:58;;;;;;;27.93;13.30;;;-3.50;99.90;;;;;;5065749;28;20723;-70
2022/12/19 00:51:29;;;;;;;26.70;13.10;;;-3.50;99.90;;;;;;5061886;28;20582;-71
2022/12/19 00:53:56;;;;;;;25.63;12.43;;;-3.40;99.90;;;;;;5064537;28;20727;-71
2022/12/19 00:56:30;;;;;;;30.27;14.13;;;-3.50;99.90;;;;;;5067127;28;20221;-70
2022/12/19 00:58:56;;;;;;;31.57;14.30;;;-3.40;99.90;;;;;;5062669;28;20220;-69
2022/12/19 01:01:34;;;;;;;26.57;13.80;;;-3.50;99.90;;;;;;5063385;28;20221;-70
2022/12/19 01:04:01;;;;;;;27.03;13.43;;;-3.50;99.90;;;;;;5064498;28;20202;-69
2022/12/19 01:06:27;;;;;;;27.67;13.17;;;-3.50;99.90;;;;;;5061566;28;20166;-70
2022/12/19 01:08:53;;;;;;;29.17;13.67;;;-3.50;99.90;;;;;;5066374;28;20585;-70
2022/12/19 01:12:44;;;;;;;27.40;13.53;;;-3.40;99.90;;;;;;5064392;28;20206;-69
2022/12/19 01:14:04;;;;;;;26.03;13.57;;;-3.40;99.90;;;;;;5062062;28;20309;-69
2022/12/19 01:16:30;;;;;;;29.03;13.60;;;-3.40;99.90;;;;;;5082909;28;20314;-70
2022/12/19 01:18:55;;;;;;;30.80;12.97;;;-3.40;99.90;;;;;;5065116;28;20222;-69
2022/12/19 01:21:21;;;;;;;24.43;12.13;;;-3.40;99.90;;;;;;5062393;28;20563;-70
2022/12/19 01:23:47;;;;;;;26.30;11.93;;;-3.30;99.90;;;;;;5068344;28;20186;-70
2022/12/19 01:26:12;;;;;;;25.27;12.20;;;-3.30;99.90;;;;;;5063208;28;20222;-69
2022/12/19 01:28:38;;;;;;;26.43;12.90;;;-3.30;99.90;;;;;;5066529;28;20213;-70
2022/12/19 01:31:05;;;;;;;24.77;13.03;;;-3.30;99.90;;;;;;5065439;28;20223;-69
2022/12/19 01:33:31;;;;;;;24.50;12.63;;;-3.30;99.90;;;;;;5061201;28;20216;-70
2022/12/19 01:35:56;;;;;;;26.33;13.17;;;-3.30;99.90;;;;;;5063076;28;20189;-70
2022/12/19 01:38:22;;;;;;;25.63;12.00;;;-3.30;99.90;;;;;;5066262;28;20228;-70
2022/12/19 01:40:56;;;;;;;28.90;13.30;;;-3.30;99.90;;;;;;5061820;28;20258;-70
2022/12/19 01:43:23;;;;;;;24.87;12.53;;;-3.20;99.90;;;;;;5066324;28;20221;-70
2022/12/19 01:45:56;;;;;;;25.73;13.13;;;-3.20;99.90;;;;;;5065780;28;20210;-70
2022/12/19 01:48:31;;;;;;;24.00;12.73;;;-3.20;99.90;;;;;;5066059;28;20175;-69
2022/12/19 01:51:24;;;;;;;25.20;12.77;;;-3.20;99.90;;;;;;5070831;28;20180;-69
2022/12/19 01:53:59;;;;;;;28.53;12.43;;;-3.20;99.90;;;;;;5060002;28;20356;-69
2022/12/19 01:56:33;;;;;;;24.80;12.30;;;-3.20;99.90;;;;;;5072851;28;20306;-69
2022/12/19 01:59:03;;;;;;;26.20;12.93;;;-3.20;99.90;;;;;;5065169;28;20217;-70
2022/12/19 02:01:29;;;;;;;25.33;12.97;;;-3.20;99.90;;;;;;5066109;28;20206;-69
2022/12/19 02:03:56;;;;;;;26.73;12.90;;;-3.20;99.90;;;;;;5067565;28;20208;-69
2022/12/19 02:06:24;;;;;;;25.57;12.37;;;-3.20;99.90;;;;;;5062565;28;20194;-70
2022/12/19 02:08:50;;;;;;;27.17;12.43;;;-3.10;99.90;;;;;;5068996;28;20205;-69
2022/12/19 02:11:15;;;;;;;24.33;13.23;;;-3.10;99.90;;;;;;5069808;28;20221;-70
2022/12/19 02:13:42;;;;;;;23.97;12.00;;;-3.10;99.90;;;;;;5066514;28;20217;-70
2022/12/19 02:16:13;;;;;;;24.07;12.40;;;-3.10;99.90;;;;;;5081190;28;20234;-70
2022/12/19 02:19:16;;;;;;;24.03;11.13;;;-3.10;99.90;;;;;;5071809;28;20295;-70
2022/12/19 02:22:05;;;;;;;25.67;12.13;;;-3.10;99.90;;;;;;5063342;28;20221;-70
2022/12/19 02:24:56;;;;;;;23.70;12.00;;;-3.10;99.90;;;;;;5067581;28;20214;-68
2022/12/19 02:27:24;;;;;;;26.70;12.67;;;-3.10;99.90;;;;;;5066184;28;20216;-69
2022/12/19 02:29:52;;;;;;;26.90;13.03;;;-3.10;99.90;;;;;;5068216;28;20217;-70
2022/12/19 02:32:24;;;;;;;27.03;12.67;;;-3.10;99.90;;;;;;5067228;28;20210;-69
2022/12/19 02:35:02;;;;;;;27.83;13.50;;;-3.10;99.90;;;;;;5062343;28;20569;-70
2022/12/19 02:37:35;;;;;;;28.90;13.00;;;-3.10;99.90;;;;;;5069616;28;20616;-69
2022/12/19 02:40:23;;;;;;;26.40;12.90;;;-3.10;99.90;;;;;;5066171;28;20233;-70
2022/12/19 02:42:56;;;;;;;24.87;12.00;;;-3.10;99.90;;;;;;5065736;28;20214;-70
2022/12/19 02:45:24;;;;;;;30.23;14.07;;;-3.10;99.90;;;;;;5072163;28;20183;-70
2022/12/19 02:47:50;;;;;;;31.27;13.53;;;-3.10;99.90;;;;;;5066483;28;20179;-70
2022/12/19 02:50:16;;;;;;;29.13;14.20;;;-3.10;99.90;;;;;;5072681;28;20611;-70
2022/12/19 02:52:44;;;;;;;27.57;12.90;;;-3.10;99.90;;;;;;5068309;28;20598;-70
2022/12/19 02:55:14;;;;;;;30.00;13.33;;;-3.10;99.90;;;;;;5067239;28;20215;-70
2022/12/19 02:57:46;;;;;;;27.23;13.50;;;-3.10;99.90;;;;;;5069595;28;20218;-70
2022/12/19 03:00:24;;;;;;;29.37;15.07;;;-3.10;99.90;;;;;;5064086;28;20214;-70
2022/12/19 03:03:17;;;;;;;30.13;13.00;;;-3.20;99.90;;;;;;5063762;28;20550;-70
2022/12/19 03:06:04;;;;;;;31.67;14.20;;;-3.10;99.90;;;;;;5069658;28;20667;-69
2022/12/19 03:08:45;;;;;;;29.37;14.27;;;-3.10;99.90;;;;;;5064827;28;20214;-70
2022/12/19 03:11:13;;;;;;;28.07;14.20;;;-3.20;99.90;;;;;;5066169;28;20218;-70
2022/12/19 03:13:49;;;;;;;27.97;13.90;;;-3.10;99.90;;;;;;5068136;28;20263;-69
2022/12/19 03:16:15;;;;;;;30.20;14.63;;;-3.10;99.90;;;;;;5065495;28;20218;-69
2022/12/19 03:18:41;;;;;;;30.43;14.07;;;-3.10;99.90;;;;;;5068575;28;20594;-70
2022/12/19 03:21:10;;;;;;;27.40;13.47;;;-3.10;99.90;;;;;;5061848;28;20276;-69
2022/12/19 03:23:36;;;;;;;32.83;14.63;;;-3.10;99.90;;;;;;5066600;28;20214;-70
2022/12/19 03:26:05;;;;;;;30.00;14.23;;;-3.10;99.90;;;;;;5068529;28;20217;-70
2022/12/19 03:28:40;;;;;;;28.60;14.13;;;-3.00;99.90;;;;;;5079247;28;20210;-70
2022/12/19 03:31:09;;;;;;;28.60;14.23;;;-3.00;99.90;;;;;;5064623;28;20213;-68
2022/12/19 03:33:37;;;;;;;29.40;14.13;;;-3.00;99.90;;;;;;5067226;28;20211;-70
2022/12/19 03:36:06;;;;;;;27.93;14.97;;;-3.00;99.90;;;;;;5064298;28;20556;-69
2022/12/19 03:38:34;;;;;;;31.03;15.03;;;-3.10;99.90;;;;;;5064617;28;20281;-70
2022/12/19 03:41:01;;;;;;;29.53;14.93;;;-3.00;99.90;;;;;;5065567;28;20216;-69
2022/12/19 03:43:28;;;;;;;33.43;15.43;;;-3.00;99.90;;;;;;5080906;28;20293;-70
2022/12/19 03:46:05;;;;;;;28.43;14.03;;;-3.00;99.90;;;;;;5068859;28;20210;-69
2022/12/19 03:48:36;;;;;;;33.37;15.67;;;-3.00;99.90;;;;;;5063206;28;20225;-70
2022/12/19 03:51:30;;;;;;;30.10;15.33;;;-3.00;99.90;;;;;;5058735;28;20179;-69
2022/12/19 03:54:00;;;;;;;34.23;17.10;;;-3.00;99.90;;;;;;5060567;28;20199;-70
2022/12/19 03:56:32;;;;;;;31.70;14.73;;;-3.00;99.90;;;;;;5059841;28;20776;-70
2022/12/19 03:59:22;;;;;;;29.77;14.50;;;-3.10;99.90;;;;;;5061482;28;20287;-70
2022/12/19 04:01:50;;;;;;;30.60;14.10;;;-3.10;99.90;;;;;;5054957;28;20203;-70
2022/12/19 04:04:17;;;;;;;31.03;14.80;;;-3.10;99.90;;;;;;5071540;28;20229;-69
2022/12/19 04:06:44;;;;;;;32.90;15.37;;;-3.10;99.90;;;;;;5061088;28;20214;-70
2022/12/19 04:09:10;;;;;;;31.57;14.87;;;-3.10;99.90;;;;;;5061606;28;20233;-69
2022/12/19 04:11:45;;;;;;;25.27;13.87;;;-3.10;99.90;;;;;;5058801;28;20714;-69
2022/12/19 04:14:17;;;;;;;30.30;15.13;;;-3.10;99.90;;;;;;5062375;28;20222;-70
2022/12/19 04:16:53;;;;;;;32.73;16.27;;;-3.10;99.90;;;;;;5062796;28;20217;-69
2022/12/19 04:19:43;;;;;;;32.33;15.53;;;-3.10;99.90;;;;;;5066779;28;20600;-69
2022/12/19 04:22:30;;;;;;;32.27;15.73;;;-3.10;99.90;;;;;;5062652;28;20220;-70
2022/12/19 04:24:59;;;;;;;33.60;15.60;;;-3.10;99.90;;;;;;5061334;28;20217;-69
2022/12/19 04:27:26;;;;;;;31.50;15.87;;;-3.10;99.90;;;;;;5061584;28;20189;-70
2022/12/19 04:29:55;;;;;;;33.37;15.80;;;-3.10;99.90;;;;;;5065580;28;20267;-69
2022/12/19 04:32:22;;;;;;;27.50;14.80;;;-3.10;99.90;;;;;;5057601;28;20213;-69
2022/12/19 04:34:47;;;;;;;33.67;16.07;;;-3.10;99.90;;;;;;5061859;28;20203;-70
2022/12/19 04:37:13;;;;;;;32.60;15.40;;;-3.10;99.90;;;;;;5071131;28;20213;-70
2022/12/19 04:39:39;;;;;;;32.80;16.23;;;-3.10;99.90;;;;;;5058988;28;20534;-69
2022/12/19 04:42:04;;;;;;;32.50;16.07;;;-3.10;99.90;;;;;;5062398;28;20213;-69
2022/12/19 04:44:30;;;;;;;31.43;15.50;;;-3.10;99.90;;;;;;5058358;28;20229;-70
2022/12/19 04:46:55;;;;;;;39.10;16.97;;;-3.10;99.90;;;;;;5061873;28;20618;-71
2022/12/19 04:49:21;;;;;;;34.40;16.63;;;-3.10;99.90;;;;;;5059785;28;20221;-70
2022/12/19 04:51:47;;;;;;;35.90;16.07;;;-3.10;99.90;;;;;;5063931;28;20592;-70
2022/12/19 04:54:12;;;;;;;37.23;17.20;;;-3.10;99.90;;;;;;5062019;28;20573;-69
2022/12/19 04:56:38;;;;;;;37.73;16.53;;;-3.10;99.90;;;;;;5057337;28;20214;-70
2022/12/19 04:59:03;;;;;;;35.03;16.60;;;-3.20;99.90;;;;;;5062566;28;20586;-68
2022/12/19 05:01:29;;;;;;;40.47;20.10;;;-3.10;99.90;;;;;;5059692;28;20406;-69
2022/12/19 05:03:55;;;;;;;35.07;17.50;;;-3.10;99.90;;;;;;5059965;28;20589;-70
2022/12/19 05:06:21;;;;;;;30.47;15.57;;;-3.10;99.90;;;;;;5074007;28;20232;-69
2022/12/19 05:08:47;;;;;;;33.53;16.07;;;-3.20;99.90;;;;;;5062220;28;20571;-70
2022/12/19 05:11:14;;;;;;;34.77;17.23;;;-3.20;99.90;;;;;;5059578;28;20301;-70
2022/12/19 05:13:40;;;;;;;37.30;16.60;;;-3.20;99.90;;;;;;5059541;28;20218;-69
2022/12/19 05:16:08;;;;;;;32.47;15.07;;;-3.10;99.90;;;;;;5061730;28;20224;-69
2022/12/19 05:18:35;;;;;;;34.13;16.50;;;-3.20;99.90;;;;;;5058909;28;20232;-70
2022/12/19 05:21:00;;;;;;;33.80;16.90;;;-3.10;99.90;;;;;;5075269;28;20232;-69
2022/12/19 05:23:27;;;;;;;29.60;15.27;;;-3.20;99.90;;;;;;5059258;28;20708;-70
2022/12/19 05:25:52;;;;;;;35.10;16.13;;;-3.20;99.90;;;;;;5064106;28;20245;-69
2022/12/19 05:28:18;;;;;;;35.77;17.37;;;-3.20;99.90;;;;;;5080628;28;20249;-70
2022/12/19 05:30:44;;;;;;;34.43;16.97;;;-3.20;99.90;;;;;;5061334;28;20625;-69
2022/12/19 05:33:10;;;;;;;41.17;17.97;;;-3.20;99.90;;;;;;5061965;28;20189;-70
2022/12/19 05:35:36;;;;;;;37.67;16.47;;;-3.20;99.90;;;;;;5065482;28;20182;-70
2022/12/19 05:38:03;;;;;;;30.10;14.70;;;-3.20;99.90;;;;;;5063472;28;20224;-70
2022/12/19 05:40:29;;;;;;;33.20;16.00;;;-3.20;99.90;;;;;;5060896;28;20214;-70
2022/12/19 05:42:54;;;;;;;29.93;15.77;;;-3.20;99.90;;;;;;5065317;28;20214;-68
2022/12/19 05:45:21;;;;;;;35.27;16.00;;;-3.20;99.90;;;;;;5062769;28;20212;-68
2022/12/19 05:47:47;;;;;;;33.97;16.03;;;-3.20;99.90;;;;;;5064804;28;20178;-70
2022/12/19 05:50:16;;;;;;;35.07;16.20;;;-3.10;99.90;;;;;;5063726;28;20233;-70
2022/12/19 05:52:42;;;;;;;34.13;16.70;;;-3.10;99.90;;;;;;5064023;28;20740;-70
2022/12/19 05:55:09;;;;;;;32.50;16.27;;;-3.10;99.90;;;;;;5064764;28;20968;-69
2022/12/19 05:57:35;;;;;;;37.50;16.77;;;-3.10;99.90;;;;;;5061547;28;20275;-69
2022/12/19 06:00:02;;;;;;;30.73;15.20;;;-3.10;99.90;;;;;;5063180;28;20268;-70
2022/12/19 06:02:32;;;;;;;34.20;16.27;;;-3.00;99.90;;;;;;5065717;28;20758;-69
2022/12/19 06:04:58;;;;;;;34.57;15.97;;;-3.00;99.90;;;;;;5070646;28;20235;-69
2022/12/19 06:07:23;;;;;;;32.00;15.90;;;-3.00;99.90;;;;;;5071047;28;20392;-69
2022/12/19 06:09:49;;;;;;;31.87;15.63;;;-2.90;99.90;;;;;;5065257;28;20221;-69
2022/12/19 06:12:15;;;;;;;34.10;15.50;;;-3.00;99.90;;;;;;5066837;28;20218;-69
2022/12/19 06:14:41;;;;;;;33.67;15.97;;;-3.00;99.90;;;;;;5072500;28;20177;-70
2022/12/19 06:17:06;;;;;;;31.90;15.97;;;-2.90;99.90;;;;;;5064109;28;20225;-69
2022/12/19 06:19:32;;;;;;;36.57;16.37;;;-2.90;99.90;;;;;;5068514;28;20626;-70
2022/12/19 06:21:57;;;;;;;35.43;17.00;;;-2.90;99.90;;;;;;5071091;28;20213;-70
2022/12/19 06:24:24;;;;;;;29.37;14.60;;;-2.90;99.90;;;;;;5064973;28;20186;-70
2022/12/19 06:26:50;;;;;;;32.73;15.03;;;-2.80;99.90;;;;;;5070172;28;20665;-70
2022/12/19 06:29:15;;;;;;;29.50;14.20;;;-2.80;99.90;;;;;;5074593;22;20231;-70
2022/12/19 06:31:41;;;;;;;35.27;15.83;;;-2.80;99.90;;;;;;5044248;28;20206;-69
2022/12/19 06:34:09;;;;;;;36.40;15.57;;;-2.70;99.90;;;;;;5045507;28;20266;-69
2022/12/19 06:36:34;;;;;;;35.37;15.57;;;-2.70;99.90;;;;;;5047820;28;20204;-69
2022/12/19 06:39:00;;;;;;;29.77;14.90;;;-2.70;99.90;;;;;;5046395;28;20227;-69
2022/12/19 06:44:12;;;;;;;34.63;15.60;;;-2.60;99.90;;;;;;5048916;28;20258;-69
2022/12/19 06:46:37;;;;;;;33.87;16.23;;;-2.60;99.90;;;;;;5048571;28;20206;-70
2022/12/19 06:49:04;;;;;;;33.27;15.47;;;-2.60;99.90;;;;;;5042154;28;20266;-69
2022/12/19 06:51:30;;;;;;;28.93;14.87;;;-2.60;99.90;;;;;;5048323;28;20293;-69
2022/12/19 06:53:56;;;;;;;28.00;14.37;;;-2.50;99.90;;;;;;5038806;28;20179;-69
2022/12/19 06:56:21;;;;;;;29.17;14.37;;;-2.50;99.90;;;;;;5047133;28;20268;-70
2022/12/19 06:58:47;;;;;;;30.87;15.53;;;-2.50;99.90;;;;;;5047210;28;20219;-70
2022/12/19 07:01:36;;;;;;;31.87;15.83;;;-2.40;99.90;;;;;;5044423;28;20203;-70
2022/12/19 07:04:02;;;;;;;30.90;15.47;;;-2.40;99.90;;;;;;5047631;28;20593;-70
2022/12/19 07:06:28;;;;;;;29.97;14.17;;;-2.40;99.90;;;;;;5047151;28;20167;-69
2022/12/19 07:08:53;;;;;;;30.53;14.50;;;-2.30;99.90;;;;;;5047883;28;20207;-68
2022/12/19 07:11:19;;;;;;;31.57;14.93;;;-2.30;99.90;;;;;;5047121;28;20253;-70
2022/12/19 07:13:45;;;;;;;30.87;14.93;;;-2.30;99.90;;;;;;5047921;28;20206;-70
2022/12/19 07:16:10;;;;;;;26.73;14.47;;;-2.30;99.90;;;;;;5040083;28;20269;-70
2022/12/19 07:18:38;;;;;;;29.87;14.20;;;-2.20;99.90;;;;;;5042805;28;20726;-71
2022/12/19 07:21:06;;;;;;;32.20;14.23;;;-2.20;99.90;;;;;;5043179;28;20555;-70
2022/12/19 07:23:33;;;;;;;30.13;14.27;;;-2.20;99.90;;;;;;5050258;28;20199;-69
2022/12/19 07:25:59;;;;;;;30.03;14.73;;;-2.20;99.90;;;;;;5044807;28;20215;-69
2022/12/19 07:28:25;;;;;;;28.30;13.70;;;-2.20;99.90;;;;;;5043767;28;20222;-70
2022/12/19 07:30:50;;;;;;;26.80;13.63;;;-2.10;99.90;;;;;;5045533;28;20710;-69
2022/12/19 07:33:16;;;;;;;30.10;14.00;;;-2.10;99.90;;;;;;5045742;28;20218;-69
2022/12/19 07:35:41;;;;;;;30.33;15.40;;;-2.10;99.90;;;;;;5047417;28;20190;-70
2022/12/19 07:38:07;;;;;;;28.83;14.80;;;-2.00;99.90;;;;;;5048092;28;20212;-68
2022/12/19 07:40:34;;;;;;;32.57;14.97;;;-2.00;99.90;;;;;;5044536;28;20265;-70
2022/12/19 07:43:04;;;;;;;32.23;14.53;;;-2.00;99.90;;;;;;5040612;28;20218;-71
2022/12/19 07:45:31;;;;;;;31.73;14.40;;;-2.00;99.90;;;;;;5049098;28;20623;-69
2022/12/19 07:48:01;;;;;;;32.53;14.73;;;-1.90;99.90;;;;;;5042285;28;20610;-70
2022/12/19 07:50:27;;;;;;;32.63;14.10;;;-1.90;99.90;;;;;;5043643;28;20306;-70
2022/12/19 07:52:52;;;;;;;31.30;14.73;;;-1.80;99.90;;;;;;5046595;28;20210;-71
2022/12/19 07:55:18;;;;;;;27.13;14.50;;;-1.80;99.90;;;;;;5044073;28;20207;-70
2022/12/19 07:57:44;;;;;;;30.63;14.53;;;-1.80;99.90;;;;;;5048713;28;20204;-70
2022/12/19 08:00:10;;;;;;;30.03;14.17;;;-1.80;99.90;;;;;;5042623;28;20211;-69
2022/12/19 08:02:35;;;;;;;30.53;14.10;;;-1.80;99.90;;;;;;5041899;28;20259;-70
2022/12/19 08:05:02;;;;;;;32.27;13.50;;;-1.70;99.90;;;;;;5045682;28;20315;-71
2022/12/19 08:07:28;;;;;;;27.30;14.27;;;-1.60;99.90;;;;;;5045568;28;20317;-70
2022/12/19 08:09:54;;;;;;;28.33;14.20;;;-1.60;99.90;;;;;;5037942;28;20306;-69
2022/12/19 08:12:20;;;;;;;29.33;13.40;;;-1.60;99.90;;;;;;5047409;28;20180;-70
2022/12/19 08:14:46;;;;;;;28.40;13.67;;;-1.60;99.90;;;;;;5042905;28;20172;-70
2022/12/19 08:17:11;;;;;;;26.80;12.93;;;-1.50;99.90;;;;;;5044658;28;20209;-70
2022/12/19 08:19:37;;;;;;;31.63;14.37;;;-1.50;99.90;;;;;;5041655;28;20217;-70
2022/12/19 08:22:02;;;;;;;25.77;13.47;;;-1.40;99.90;;;;;;5043362;28;20212;-70
2022/12/19 08:24:29;;;;;;;27.43;13.80;;;-1.40;99.90;;;;;;5046133;28;20219;-70
2022/12/19 08:26:55;;;;;;;29.60;13.23;;;-1.30;99.90;;;;;;5046296;28;20551;-70
2022/12/19 08:29:22;;;;;;;34.27;14.77;;;-1.30;99.90;;;;;;5042884;28;20250;-71
2022/12/19 08:31:47;;;;;;;29.43;13.73;;;-1.20;99.90;;;;;;5044566;28;20265;-68
2022/12/19 08:34:13;;;;;;;29.43;13.83;;;-1.20;99.90;;;;;;5044613;28;20212;-72
2022/12/19 08:36:39;;;;;;;31.53;14.20;;;-1.20;99.90;;;;;;5040548;28;20215;-70
2022/12/19 08:39:05;;;;;;;28.83;13.43;;;-1.10;99.90;;;;;;5047009;28;20212;-70
2022/12/19 08:41:31;;;;;;;29.67;14.13;;;-1.10;99.90;;;;;;5043664;28;20640;-70
2022/12/19 08:43:56;;;;;;;29.67;13.87;;;-1.10;99.90;;;;;;5042162;28;20315;-71
2022/12/19 08:46:22;;;;;;;26.40;13.43;;;-1.10;99.90;;;;;;5045626;28;20204;-71
2022/12/19 08:48:48;;;;;;;30.67;14.83;;;-1.10;99.90;;;;;;5041586;28;20219;-70
2022/12/19 08:51:15;;;;;;;29.00;13.73;;;-1.00;99.90;;;;;;5047329;28;20273;-72
2022/12/19 08:53:42;;;;;;;24.60;12.30;;;-1.00;99.90;;;;;;5046095;28;20206;-71
2022/12/19 08:56:17;;;;;;;26.17;12.60;;;-1.00;99.90;;;;;;5047315;28;20564;-70
2022/12/19 08:58:43;;;;;;;30.20;13.93;;;-1.00;99.90;;;;;;5047799;28;20241;-70
2022/12/19 09:01:15;;;;;;;23.60;11.87;;;-0.90;99.90;;;;;;5045606;28;20213;-70
2022/12/19 09:03:41;;;;;;;25.67;13.27;;;-0.90;99.90;;;;;;5044166;28;20214;-70
2022/12/19 09:06:08;;;;;;;31.37;13.10;;;-0.90;99.90;;;;;;5050317;28;20182;-70
2022/12/19 09:08:34;;;;;;;32.70;13.03;;;-0.90;99.90;;;;;;5044263;28;20205;-69
2022/12/19 09:11:04;;;;;;;28.53;13.63;;;-0.90;99.90;;;;;;5050584;28;20796;-71
2022/12/19 09:13:31;;;;;;;30.13;14.20;;;-0.80;99.90;;;;;;5052574;28;20214;-70
2022/12/19 09:16:01;;;;;;;25.17;13.33;;;-0.70;99.90;;;;;;5044544;28;20653;-70
2022/12/19 09:18:27;;;;;;;29.80;14.30;;;-0.70;99.90;;;;;;5049001;28;20648;-70
2022/12/19 09:20:54;;;;;;;30.53;12.07;;;-0.70;99.90;;;;;;5047179;28;20271;-68
2022/12/19 09:23:20;;;;;;;33.43;14.27;;;-0.60;99.90;;;;;;5047062;28;20200;-70
2022/12/19 09:25:46;;;;;;;31.47;14.40;;;-0.60;99.90;;;;;;5051354;28;20204;-70
2022/12/19 09:28:12;;;;;;;26.03;13.30;;;-0.60;99.90;;;;;;5047639;28;21400;-70
2022/12/19 09:30:37;;;;;;;23.40;11.77;;;-0.60;99.90;;;;;;5043436;28;20223;-70
2022/12/19 09:33:03;;;;;;;24.33;11.90;;;-0.50;99.90;;;;;;5049636;28;20190;-70
2022/12/19 09:35:29;;;;;;;29.87;12.97;;;-0.50;99.90;;;;;;5048213;28;20215;-69
2022/12/19 09:37:54;;;;;;;24.80;13.03;;;-0.50;99.90;;;;;;5050975;28;20210;-70
2022/12/19 09:40:20;;;;;;;25.23;12.77;;;-0.40;99.90;;;;;;5048949;28;20255;-70
2022/12/19 09:43:02;;;;;;;27.87;13.33;;;-0.40;99.90;;;;;;5045252;28;20228;-70
2022/12/19 09:45:46;;;;;;;27.73;13.50;;;-0.30;99.90;;;;;;5045747;28;20259;-70
2022/12/19 09:48:21;;;;;;;29.47;13.77;;;-0.30;99.90;;;;;;5047709;28;20862;-69
2022/12/19 09:51:38;;;;;;;27.93;13.30;;;-0.20;99.90;;;;;;5040858;28;20198;-70
2022/12/19 09:54:17;;;;;;;29.33;13.13;;;-0.20;99.90;;;;;;5024027;28;20207;-70
2022/12/19 09:56:44;;;;;;;25.53;11.60;;;-0.10;99.90;;;;;;5045424;28;20241;-69
2022/12/19 09:59:35;;;;;;;28.17;13.83;;;-0.10;99.90;;;;;;5048899;28;20219;-69
2022/12/19 10:02:36;;;;;;;27.20;13.20;;;0.00;99.90;;;;;;5047063;28;20296;-70
2022/12/19 10:05:24;;;;;;;26.37;12.20;;;0.00;99.90;;;;;;5046062;28;20961;-68
2022/12/19 10:07:51;;;;;;;28.20;13.47;;;0.10;99.90;;;;;;5046285;28;20289;-69
2022/12/19 10:10:25;;;;;;;27.97;13.43;;;0.10;99.90;;;;;;5044260;28;20218;-69
2022/12/19 10:13:09;;;;;;;26.87;13.03;;;0.20;99.90;;;;;;5049080;28;20207;-69
2022/12/19 10:15:49;;;;;;;30.80;13.20;;;0.20;99.90;;;;;;5045626;28;20217;-69
2022/12/19 10:18:51;;;;;;;26.20;12.50;;;0.30;99.90;;;;;;5044705;28;20534;-69
2022/12/19 10:21:47;;;;;;;25.87;12.57;;;0.40;99.90;;;;;;5017134;28;20185;-70
2022/12/19 10:24:32;;;;;;;27.50;14.10;;;0.40;99.90;;;;;;5060078;28;20181;-70
2022/12/19 10:27:16;;;;;;;28.60;13.37;;;0.40;99.90;;;;;;5047928;28;20235;-70
2022/12/19 10:30:01;;;;;;;30.13;13.77;;;0.40;99.90;;;;;;5044519;28;20229;-69
2022/12/19 10:33:07;;;;;;;29.27;13.40;;;0.50;99.90;;;;;;5044555;28;20304;-70
2022/12/19 10:35:39;;;;;;;26.93;14.07;;;0.50;99.90;;;;;;5047196;28;20219;-70
2022/12/19 10:38:16;;;;;;;24.53;12.90;;;0.60;99.90;;;;;;5043868;28;20218;-68
2022/12/19 10:40:52;;;;;;;27.27;13.13;;;0.60;99.90;;;;;;5047992;28;20216;-70
2022/12/19 10:43:39;;;;;;;27.37;13.53;;;0.70;99.90;;;;;;5044777;28;20290;-70
2022/12/19 10:46:15;;;;;;;29.97;13.50;;;0.80;99.90;;;;;;5045262;28;20591;-70
2022/12/19 10:48:41;;;;;;;28.23;13.90;;;0.80;99.90;;;;;;5044042;28;20215;-68
2022/12/19 10:51:22;;;;;;;28.40;13.10;;;0.90;99.90;;;;;;5048347;28;20184;-69
2022/12/19 10:53:59;;;;;;;25.47;11.67;;;0.90;99.90;;;;;;5046719;28;20214;-69
2022/12/19 10:56:29;;;;;;;25.93;12.90;;;0.90;99.90;;;;;;5045484;28;20211;-69
2022/12/19 10:58:57;;;;;;;25.20;13.00;;;1.00;99.90;;;;;;5044484;28;20222;-70
2022/12/19 11:01:38;;;;;;;27.63;13.33;;;1.00;99.90;;;;;;5047883;28;20298;-69
2022/12/19 11:04:16;;;;;;;29.60;12.50;;;1.00;99.90;;;;;;5039617;28;20218;-70
2022/12/19 11:06:49;;;;;;;27.80;13.10;;;1.00;99.90;;;;;;5046707;28;20263;-69
2022/12/19 11:09:17;;;;;;;25.20;13.47;;;1.00;99.90;;;;;;5045488;28;20369;-70
2022/12/19 11:11:42;;;;;;;30.67;13.57;;;1.00;99.90;;;;;;5042055;28;20183;-69
2022/12/19 11:14:21;;;;;;;29.43;13.47;;;1.10;99.90;;;;;;5047938;28;20209;-69
2022/12/19 11:16:46;;;;;;;25.77;13.13;;;1.00;99.90;;;;;;5043879;28;20230;-69
2022/12/19 11:19:30;;;;;;;27.10;12.67;;;1.10;99.90;;;;;;5045612;28;20221;-69
2022/12/19 11:22:19;;;;;;;22.50;12.20;;;1.10;99.90;;;;;;5045951;28;20227;-69
2022/12/19 11:24:51;;;;;;;26.57;13.07;;;1.10;99.90;;;;;;5046941;28;20212;-69
2022/12/19 11:27:41;;;;;;;25.90;13.53;;;1.10;99.90;;;;;;5048931;28;20180;-70
2022/12/19 11:30:23;;;;;;;26.90;12.53;;;1.10;99.90;;;;;;5043721;28;20636;-69
2022/12/19 11:33:07;;;;;;;25.63;12.93;;;1.10;99.90;;;;;;5043915;28;20224;-69
2022/12/19 11:35:47;;;;;;;30.53;13.33;;;1.20;99.90;;;;;;5046956;28;20218;-69
2022/12/19 11:38:17;;;;;;;26.83;13.17;;;1.10;99.90;;;;;;5044326;28;20316;-68
2022/12/19 11:40:54;;;;;;;27.67;13.40;;;1.20;99.90;;;;;;5048112;28;20303;-69
2022/12/19 11:43:38;;;;;;;25.73;14.10;;;1.20;99.90;;;;;;5047530;28;20207;-68
2022/12/19 11:46:45;;;;;;;29.80;13.57;;;1.20;99.90;;;;;;5029568;28;20227;-69
2022/12/19 11:49:30;;;;;;;28.63;13.87;;;1.30;99.90;;;;;;5025490;28;20220;-68
2022/12/19 11:52:22;;;;;;;26.67;13.23;;;1.30;99.90;;;;;;5020528;28;20211;-69
2022/12/19 11:55:16;;;;;;;27.03;14.10;;;1.30;99.90;;;;;;5030545;28;20215;-69
2022/12/19 11:57:42;;;;;;;31.57;14.10;;;1.30;99.90;;;;;;5035775;28;20654;-69
2022/12/19 12:00:35;;;;;;;31.40;14.20;;;1.30;99.90;;;;;;5027717;28;20248;-68
2022/12/19 12:03:16;;;;;;;29.23;13.30;;;1.30;99.90;;;;;;5023040;28;20603;-67
2022/12/19 12:05:50;;;;;;;26.53;13.43;;;1.30;99.90;;;;;;5023944;28;20289;-68
2022/12/19 12:08:47;;;;;;;27.10;13.53;;;1.30;99.90;;;;;;5027489;28;20207;-69
2022/12/19 12:11:15;;;;;;;28.13;13.27;;;1.30;99.90;;;;;;5023084;28;20223;-69
2022/12/19 12:14:04;;;;;;;28.00;14.07;;;1.30;99.90;;;;;;5038833;28;20206;-71
2022/12/19 12:16:59;;;;;;;29.33;13.77;;;1.30;99.90;;;;;;5025838;28;20211;-68
2022/12/19 12:19:39;;;;;;;28.43;13.40;;;1.30;99.90;;;;;;5028133;28;20243;-69
2022/12/19 12:22:05;;;;;;;28.73;13.10;;;1.40;99.90;;;;;;5025792;28;20569;-70
2022/12/19 12:24:53;;;;;;;24.57;13.17;;;1.50;99.90;;;;;;5024132;28;20231;-69
2022/12/19 12:27:31;;;;;;;24.77;13.83;;;1.50;99.90;;;;;;5025086;28;20177;-69
2022/12/19 12:30:17;;;;;;;30.53;14.53;;;1.50;99.90;;;;;;5026148;28;20244;-68
2022/12/19 12:32:58;;;;;;;31.63;14.53;;;1.50;99.90;;;;;;5021783;28;20757;-70
2022/12/19 12:35:38;;;;;;;24.93;13.37;;;1.50;99.90;;;;;;5024662;28;20213;-67
2022/12/19 12:38:22;;;;;;;24.57;12.97;;;1.50;99.90;;;;;;5024807;28;20297;-68
2022/12/19 12:42:02;;;;;;;28.60;13.40;;;1.50;99.90;;;;;;5024823;28;20221;-69
2022/12/19 12:44:12;;;;;;;27.07;14.00;;;1.50;99.90;;;;;;5024017;28;20229;-69
2022/12/19 12:46:46;;;;;;;26.93;14.27;;;1.60;99.90;;;;;;5022752;28;20214;-69
2022/12/19 12:49:34;;;;;;;25.57;14.43;;;1.60;99.90;;;;;;5025715;28;20249;-68
2022/12/19 12:52:03;;;;;;;26.90;13.47;;;1.50;99.90;;;;;;5020718;28;20212;-70
2022/12/19 12:54:35;;;;;;;27.30;14.97;;;1.50;99.90;;;;;;5025276;28;20208;-69